createdAt,value
2023-04-14T00:01:31.731Z,100344.41
2023-04-14T00:06:35.907Z,100356.75
2023-04-14T00:11:37.631Z,100356.81
2023-04-14T00:16:41.182Z,100363.78
2023-04-14T00:21:42.930Z,100368.22
2023-04-14T00:26:44.898Z,100363.84
2023-04-14T00:31:48.195Z,100366.50
2023-04-14T00:36:49.881Z,100365.66
2023-04-14T00:41:52.059Z,100369.16
2023-04-14T00:46:55.952Z,100375.28
2023-04-14T00:51:58.605Z,100375.28
2023-04-14T00:57:03.046Z,100370.03
2023-04-14T01:02:06.243Z,100370.91
2023-04-14T01:07:08.101Z,100363.09
2023-04-14T01:12:21.517Z,100369.25
2023-04-14T01:17:32.499Z,100377.13
2023-04-14T01:22:38.960Z,100371.03
2023-04-14T01:27:46.044Z,100371.91
2023-04-14T01:32:52.092Z,100371.94
2023-04-14T01:38:03.556Z,100374.59
2023-04-14T01:43:10.123Z,100376.34
2023-04-14T01:48:14.171Z,100373.75
2023-04-14T01:53:18.097Z,100379.94
2023-04-14T01:58:22.225Z,100373.84
2023-04-14T02:03:27.072Z,100370.31
2023-04-14T02:08:31.541Z,100378.22
2023-04-14T02:13:34.674Z,100382.59
2023-04-14T02:18:40.724Z,100379.09
2023-04-14T02:23:43.308Z,100386.13
2023-04-14T02:28:50.335Z,100381.75
2023-04-14T02:33:56.295Z,100385.25
2023-04-14T02:39:02.009Z,100383.50
2023-04-14T02:44:18.319Z,100381.72
2023-04-14T02:49:23.624Z,100380.00
2023-04-14T02:54:27.555Z,100382.63
2023-04-14T02:59:30.890Z,100390.53
2023-04-14T03:04:37.716Z,100376.38
2023-04-14T03:09:40.079Z,100380.69
2023-04-14T03:14:44.428Z,100382.31
2023-04-14T03:19:49.453Z,100387.47
2023-04-14T03:24:53.239Z,100377.94
2023-04-14T03:29:58.703Z,100374.53
2023-04-14T03:35:03.173Z,100370.16
2023-04-14T03:40:08.181Z,100364.00
2023-04-14T03:45:11.188Z,100355.22
2023-04-14T03:50:16.630Z,100363.94
2023-04-14T03:55:19.512Z,100361.22
2023-04-14T04:00:23.221Z,100367.44
2023-04-14T04:05:27.934Z,100366.56
2023-04-14T04:10:33.048Z,100363.06
2023-04-14T04:15:35.624Z,100367.47
2023-04-14T04:20:41.073Z,100377.16
2023-04-14T04:25:43.507Z,100375.44
2023-04-14T04:30:46.619Z,100375.44
2023-04-14T04:35:51.319Z,100370.13
2023-04-14T04:40:53.287Z,100371.00
2023-04-14T04:46:14.475Z,100370.13
2023-04-14T04:51:17.999Z,100375.38
2023-04-14T04:56:20.358Z,100376.22
2023-04-14T05:01:22.641Z,100377.03
2023-04-14T05:06:25.798Z,100388.44
2023-04-14T05:11:28.203Z,100390.16
2023-04-14T05:16:30.304Z,100389.28
2023-04-14T05:21:34.277Z,100386.69
2023-04-14T05:26:57.793Z,100391.88
2023-04-14T05:31:58.120Z,100395.28
2023-04-14T05:37:01.222Z,100389.19
2023-04-14T05:42:03.375Z,100398.91
2023-04-14T05:47:05.270Z,100393.59
2023-04-14T05:52:08.700Z,100397.94
2023-04-14T05:57:10.430Z,100402.28
2023-04-14T06:02:12.502Z,100389.88
2023-04-14T06:07:15.878Z,100400.47
2023-04-14T06:12:17.619Z,100396.03
2023-04-14T06:17:19.860Z,100402.19
2023-04-14T06:22:23.300Z,100399.47
2023-04-14T06:27:25.565Z,100399.41
2023-04-14T06:32:27.562Z,100402.88
2023-04-14T06:37:30.796Z,100409.91
2023-04-14T06:42:32.549Z,100407.25
2023-04-14T06:47:34.351Z,100405.50
2023-04-14T06:52:37.516Z,100405.41
2023-04-14T06:57:39.208Z,100409.75
2023-04-14T07:02:44.348Z,100413.13
2023-04-14T07:07:47.452Z,100408.72
2023-04-14T07:12:49.199Z,100415.69
2023-04-14T07:17:51.223Z,100406.75
2023-04-14T07:22:54.889Z,100410.97
2023-04-14T07:28:03.038Z,100416.41
2023-04-14T07:33:06.605Z,100421.66
2023-04-14T07:38:09.959Z,100418.84
2023-04-14T07:43:11.935Z,100420.56
2023-04-14T07:48:13.806Z,100426.41
2023-04-14T07:53:17.002Z,100422.09
2023-04-14T07:58:24.297Z,100426.22
2023-04-14T08:03:28.400Z,100426.88
2023-04-14T08:08:31.809Z,100430.34
2023-04-14T08:13:33.827Z,100424.91
2023-04-14T08:18:36.742Z,100430.09
2023-04-14T08:23:40.443Z,100438.63
2023-04-14T08:28:42.506Z,100432.41
2023-04-14T08:33:44.637Z,100428.31
2023-04-14T08:38:48.210Z,100428.31
2023-04-14T08:43:50.337Z,100421.72
2023-04-14T08:48:58.817Z,100428.81
2023-04-14T08:54:05.711Z,100422.53
2023-04-14T08:59:09.642Z,100426.13
2023-04-14T09:04:13.539Z,100429.19
2023-04-14T09:09:18.187Z,100419.75
2023-04-14T09:14:21.679Z,100420.22
2023-04-14T09:19:24.638Z,100423.19
2023-04-14T09:24:31.009Z,100418.94
2023-04-14T09:29:34.175Z,100403.72
2023-04-14T09:34:36.229Z,100405.56
2023-04-14T09:39:48.905Z,100410.94
2023-04-14T09:44:55.001Z,100408.47
2023-04-14T09:49:58.120Z,100405.03
2023-04-14T09:55:01.965Z,100409.78
2023-04-14T10:00:17.745Z,100411.63
2023-04-14T10:05:19.954Z,100412.41
2023-04-14T10:10:23.121Z,100417.66
2023-04-14T10:15:28.235Z,100415.00
2023-04-14T10:20:30.966Z,100405.09
2023-04-14T10:25:34.398Z,100396.31
2023-04-14T10:30:36.573Z,100399.84
2023-04-14T10:35:41.525Z,100405.00
2023-04-14T10:40:47.378Z,100394.34
2023-04-14T10:45:53.618Z,100388.22
2023-04-14T10:50:58.624Z,100392.56
2023-04-14T10:56:03.503Z,100381.00
2023-04-14T11:01:23.931Z,100383.84
2023-04-14T11:06:51.294Z,100380.38
2023-04-14T11:11:56.028Z,100365.25
2023-04-14T11:17:03.920Z,100369.66
2023-04-14T11:22:07.045Z,100370.66
2023-04-14T11:27:13.433Z,100370.81
2023-04-14T11:32:15.348Z,100367.38
2023-04-14T11:37:17.705Z,100357.69
2023-04-14T11:42:20.800Z,100362.00
2023-04-14T11:47:22.866Z,100363.81
2023-04-14T11:52:24.913Z,100369.97
2023-04-14T11:57:28.232Z,100366.56
2023-04-14T12:02:30.709Z,100376.41
2023-04-14T12:07:32.975Z,100364.81
2023-04-14T12:12:36.074Z,100368.53
2023-04-14T12:17:38.058Z,100353.44
2023-04-14T12:22:49.186Z,100349.97
2023-04-14T12:27:55.821Z,100349.94
2023-04-14T12:32:58.974Z,100334.19
2023-04-14T12:38:00.784Z,100338.44
2023-04-14T12:43:05.223Z,100333.16
2023-04-14T12:48:07.195Z,100326.09
2023-04-14T12:53:25.479Z,100313.81
2023-04-14T12:58:30.698Z,100324.34
2023-04-14T13:03:41.252Z,100311.94
2023-04-14T13:08:43.718Z,100315.34
2023-04-14T13:13:47.355Z,100309.28
2023-04-14T13:18:49.243Z,100306.47
2023-04-14T13:23:51.326Z,100303.97
2023-04-14T13:28:54.895Z,100301.28
2023-04-14T13:33:57.327Z,100298.63
2023-04-14T13:38:59.627Z,100295.53
2023-04-14T13:44:03.752Z,100281.06
2023-04-14T13:49:05.795Z,100288.13
2023-04-14T13:54:07.728Z,100279.28
2023-04-14T13:59:11.324Z,100276.69
2023-04-14T14:04:13.151Z,100287.34
2023-04-14T14:09:15.734Z,100277.72
2023-04-14T14:14:18.916Z,100273.19
2023-04-14T14:19:20.609Z,100267.03
2023-04-14T14:24:22.392Z,100270.72
2023-04-14T14:29:25.895Z,100263.75
2023-04-14T14:34:27.740Z,100255.81
2023-04-14T14:39:29.886Z,100246.25
2023-04-14T14:44:33.438Z,100253.41
2023-04-14T14:49:36.502Z,100256.13
2023-04-14T14:54:40.934Z,100245.56
2023-04-14T14:59:44.477Z,100248.19
2023-04-14T15:04:46.223Z,100243.84
2023-04-14T15:09:49.742Z,100245.50
2023-04-14T15:14:53.464Z,100242.06
2023-04-14T15:19:55.404Z,100249.13
2023-04-14T15:24:57.666Z,100242.91
2023-04-14T15:30:01.145Z,100254.41
2023-04-14T15:35:03.935Z,100255.31
2023-04-14T15:40:08.286Z,100253.56
2023-04-14T15:45:12.197Z,100247.38
2023-04-14T15:50:14.224Z,100250.06
2023-04-14T15:55:24.420Z,100252.69
2023-04-14T16:00:27.870Z,100252.66
2023-04-14T16:05:30.193Z,100256.19
2023-04-14T16:10:32.639Z,100254.47
2023-04-14T16:15:36.365Z,100256.28
2023-04-14T16:20:38.084Z,100259.75
2023-04-14T16:25:39.799Z,100259.84
2023-04-14T16:30:43.615Z,100259.81
2023-04-14T16:35:45.894Z,100256.34
2023-04-14T16:40:54.032Z,100262.47
2023-04-14T16:46:02.536Z,100261.59
2023-04-14T16:51:06.772Z,100266.88
2023-04-14T16:56:10.439Z,100271.31
2023-04-14T17:01:13.535Z,100272.19
2023-04-14T17:06:15.713Z,100265.97
2023-04-14T17:11:18.185Z,100266.75
2023-04-14T17:16:21.338Z,100259.78
2023-04-14T17:21:23.451Z,100263.31
2023-04-14T17:26:25.480Z,100271.25
2023-04-14T17:31:28.992Z,100265.13
2023-04-14T17:36:30.736Z,100276.53
2023-04-14T17:41:33.739Z,100265.06
2023-04-14T17:46:37.229Z,100274.81
2023-04-14T17:51:39.032Z,100272.13
2023-04-14T17:56:41.152Z,100285.34
2023-04-14T18:01:44.306Z,100270.41
2023-04-14T18:06:46.442Z,100257.13
2023-04-14T18:11:48.364Z,100254.59
2023-04-14T18:16:51.878Z,100249.25
2023-04-14T18:21:53.994Z,100251.91
2023-04-14T18:26:56.291Z,100249.31
2023-04-14T18:32:00.063Z,100252.84
2023-04-14T18:37:02.206Z,100246.75
2023-04-14T18:42:04.517Z,100244.09
2023-04-14T18:47:07.569Z,100244.91
2023-04-14T18:52:09.676Z,100252.81
2023-04-14T18:57:11.677Z,100253.69
2023-04-14T19:02:15.136Z,100254.63
2023-04-14T19:07:16.945Z,100261.59
2023-04-14T19:12:28.253Z,100256.34
2023-04-14T19:17:34.720Z,100257.19
2023-04-14T19:22:37.157Z,100251.06
2023-04-14T19:27:40.660Z,100240.47
2023-04-14T19:32:45.279Z,100234.38
2023-04-14T19:37:47.271Z,100237.91
2023-04-14T19:42:49.303Z,100224.72
2023-04-14T19:47:53.691Z,100221.16
2023-04-14T19:52:55.786Z,100226.50
2023-04-14T19:57:59.812Z,100226.50
2023-04-14T20:03:03.175Z,100214.09
2023-04-14T20:08:05.334Z,100224.72
2023-04-14T20:13:07.494Z,100210.59
2023-04-14T20:18:11.774Z,100207.06
2023-04-14T20:23:16.064Z,100209.59
2023-04-14T20:28:18.812Z,100210.53
2023-04-14T20:33:22.089Z,100211.38
2023-04-14T20:38:24.899Z,100199.03
2023-04-14T20:43:27.055Z,100196.50
2023-04-14T20:48:32.420Z,100193.03
2023-04-14T20:53:37.181Z,100180.69
2023-04-14T20:58:41.234Z,100179.84
2023-04-14T21:03:48.626Z,100164.97
2023-04-14T21:08:54.461Z,100164.97
2023-04-14T21:15:38.893Z,100173.69
2023-04-14T21:19:28.553Z,100177.25
2023-04-14T21:24:32.033Z,100170.22
2023-04-14T21:29:34.283Z,100162.25
2023-04-14T21:34:38.051Z,100159.63
2023-04-14T21:39:39.814Z,100152.63
2023-04-14T21:44:42.217Z,100144.63
2023-04-14T21:49:45.803Z,100151.63
2023-04-14T21:54:47.906Z,100142.84
2023-04-14T21:59:50.101Z,100138.44
2023-04-14T22:04:53.382Z,100129.66
2023-04-14T22:09:55.461Z,100135.00
2023-04-14T22:14:57.800Z,100134.03
2023-04-14T22:20:01.743Z,100134.88
2023-04-14T22:25:03.999Z,100131.44
2023-04-14T22:30:09.744Z,100126.16
2023-04-14T22:35:13.291Z,100122.59
2023-04-14T22:40:15.514Z,100112.03
2023-04-14T22:45:17.966Z,100112.03
2023-04-14T22:50:21.329Z,100113.72
2023-04-14T22:55:23.399Z,100103.25
2023-04-14T23:00:25.166Z,100106.75
2023-04-14T23:05:31.083Z,100108.47
2023-04-14T23:10:33.101Z,100111.97
2023-04-14T23:15:35.644Z,100110.16
2023-04-14T23:20:39.147Z,100105.78
2023-04-14T23:25:41.266Z,100106.56
2023-04-14T23:30:43.381Z,100108.28
2023-04-14T23:35:49.826Z,100110.00
2023-04-14T23:40:55.018Z,100108.16
2023-04-14T23:45:58.151Z,100108.25
2023-04-14T23:51:15.513Z,100093.34
2023-04-14T23:56:21.715Z,100090.75
